Air Quality Table

TIMESTAMP NO2 SO2 O3 PM10 TEMP HUM AIRPRES WS WD NO
2021-05-12 11:00 10.97 ug/m3 1.85 ug/m3 70.16 ug/m3 40.18 ug/m3 20.46 C 61.32 % 1,008.28 mbar 5.24 m/s 287.3 Deg 2.87 ug/m3
2021-05-12 10:00 7.51 ug/m3 1.67 ug/m3 70.77 ug/m3 36.62 ug/m3 20.13 C 59.07 % 1,008.01 mbar 5.33 m/s 290.82 Deg 2.05 ug/m3
2021-05-12 09:00 12.63 ug/m3 1.69 ug/m3 62.31 ug/m3 33.67 ug/m3 19.41 C 66.35 % 1,008.04 mbar 4.44 m/s 319.68 Deg 3.11 ug/m3
2021-05-12 08:00 13 ug/m3 1.55 ug/m3 59.38 ug/m3 22.86 ug/m3 18.65 C 68.58 % 1,008.01 mbar 4.74 m/s 303.67 Deg 3.1 ug/m3
2021-05-12 07:00 17.46 ug/m3 1.59 ug/m3 50.39 ug/m3 18.2 ug/m3 17.82 C 76.6 % 1,007.94 mbar 3.98 m/s 294.87 Deg 3.66 ug/m3
2021-05-12 06:00 12.9 ug/m3 1.43 ug/m3 54.28 ug/m3 28.79 ug/m3 17.28 C 84.28 % 1,007.51 mbar 4.34 m/s 320.12 Deg 1.6 ug/m3
2021-05-12 05:00 6.73 ug/m3 1.68 ug/m3 57.19 ug/m3 17.38 ug/m3 17.33 C 90.02 % 1,007.05 mbar 3.37 m/s 306.77 Deg 0.46 ug/m3
2021-05-12 04:00 4.82 ug/m3 1.54 ug/m3 53.17 ug/m3 18.35 ug/m3 17.72 C 87.06 % 1,007.13 mbar 2.86 m/s 290.07 Deg 0.32 ug/m3
2021-05-12 03:00 4.54 ug/m3 1.39 ug/m3 51.5 ug/m3 27.2 ug/m3 17.83 C 86.1 % 1,007.12 mbar 2.01 m/s 290.55 Deg 0.23 ug/m3
2021-05-12 02:00 3.91 ug/m3 1.64 ug/m3 58.79 ug/m3 32.67 ug/m3 18 C 90.96 % 1,007.26 mbar 2.68 m/s 283.7 Deg 0.06 ug/m3
2021-05-12 01:00 22.42 ug/m3 1.78 ug/m3 49.72 ug/m3 23.2 ug/m3 18.09 C 94.89 % 1,007.57 mbar 3.04 m/s 299.02 Deg 0.15 ug/m3
2021-05-12 00:00 17.62 ug/m3 1.61 ug/m3 53.73 ug/m3 28.76 ug/m3 18.39 C 92.2 % 1,007.97 mbar 3.37 m/s 291.62 Deg 0.54 ug/m3
2021-05-11 23:00 13.18 ug/m3 1.24 ug/m3 50.77 ug/m3 25.83 ug/m3 18.71 C 88.96 % 1,008.28 mbar 3.2 m/s 281.43 Deg 0.53 ug/m3
2021-05-11 22:00 26.65 ug/m3 1.65 ug/m3 29.24 ug/m3 28.3 ug/m3 18.8 C 90.52 % 1,008.45 mbar 1.41 m/s 184 Deg 0.28 ug/m3
2021-05-11 21:00 13.97 ug/m3 1.49 ug/m3 36.44 ug/m3 32.17 ug/m3 18.85 C 89.1 % 1,008.02 mbar 0.74 m/s 267.47 Deg -0.09 ug/m3
2021-05-11 20:00 6.72 ug/m3 1.61 ug/m3 49.03 ug/m3 25.07 ug/m3 18.76 C 91.63 % 1,007.44 mbar 1.3 m/s 50.03 Deg 0.2 ug/m3
2021-05-11 19:00 3.36 ug/m3 1.36 ug/m3 53.67 ug/m3 20.46 ug/m3 19.31 C 86.76 % 1,007.12 mbar 1.54 m/s 57.33 Deg 0.54 ug/m3
2021-05-11 18:00 1.15 ug/m3 1.39 ug/m3 68.6 ug/m3 25.93 ug/m3 19.59 C 85.18 % 1,006.17 mbar 2.99 m/s 100.58 Deg 0.43 ug/m3
2021-05-11 17:00 -0.2 ug/m3 1.63 ug/m3 71.26 ug/m3 21.25 ug/m3 20.18 C 80.57 % 1,006.41 mbar 3.47 m/s 121.72 Deg 0.21 ug/m3
2021-05-11 16:00 -0.56 ug/m3 1.34 ug/m3 74.1 ug/m3 23.44 ug/m3 20.44 C 80.02 % 1,006.72 mbar 3.91 m/s 109.53 Deg 0.17 ug/m3
2021-05-11 15:00 -0.12 ug/m3 1.41 ug/m3 83.4 ug/m3 24.4 ug/m3 20.48 C 77.98 % 1,006.84 mbar 5.61 m/s 128.2 Deg 0.12 ug/m3
2021-05-11 14:00 -0.25 ug/m3 1.37 ug/m3 83.36 ug/m3 16.71 ug/m3 20.54 C 77.95 % 1,006.98 mbar 6.01 m/s 146.42 Deg -0.24 ug/m3

It is to be noted that the data is provisional and subject to quality assurance procedures. For validated data kindly refer your request to contact.air@era.org.mt